createdAt,value
2018-08-20T00:01:35.539Z,5.53
2018-08-20T00:04:05.828Z,5.80
2018-08-20T00:06:47.579Z,5.80
2018-08-20T00:09:16.123Z,5.77
2018-08-20T00:11:45.411Z,4.90
2018-08-20T00:14:13.919Z,5.97
2018-08-20T00:16:43.489Z,5.90
2018-08-20T00:19:13.780Z,4.63
2018-08-20T00:21:44.027Z,6.13
2018-08-20T00:24:12.439Z,5.97
2018-08-20T00:26:40.975Z,5.83
2018-08-20T00:29:09.590Z,5.33
2018-08-20T00:31:38.011Z,5.23
2018-08-20T00:34:06.554Z,6.10
2018-08-20T00:36:35.099Z,5.73
2018-08-20T00:39:03.836Z,5.13
2018-08-20T00:41:32.370Z,5.00
2018-08-20T00:44:00.859Z,6.50
2018-08-20T00:46:29.315Z,4.87
2018-08-20T00:48:57.752Z,5.50
2018-08-20T00:51:26.424Z,5.80
2018-08-20T00:53:54.852Z,5.20
2018-08-20T00:56:23.251Z,5.83
2018-08-20T00:58:51.883Z,5.27
2018-08-20T01:01:20.288Z,6.03
2018-08-20T01:03:48.715Z,5.33
2018-08-20T01:06:17.372Z,5.70
2018-08-20T01:08:45.821Z,5.40
2018-08-20T01:11:14.295Z,5.77
2018-08-20T01:13:42.827Z,5.00
2018-08-20T01:16:11.276Z,5.47
2018-08-20T01:18:39.783Z,6.30
2018-08-20T01:21:08.417Z,6.00
2018-08-20T01:23:36.843Z,5.87
2018-08-20T01:26:05.247Z,4.70
2018-08-20T01:28:33.686Z,6.33
2018-08-20T01:31:02.179Z,4.73
2018-08-20T01:33:30.627Z,4.73
2018-08-20T01:35:59.124Z,5.70
2018-08-20T01:38:27.787Z,4.80
2018-08-20T01:40:56.316Z,5.63
2018-08-20T01:43:24.923Z,6.20
2018-08-20T01:45:53.400Z,5.90
2018-08-20T01:48:21.823Z,5.97
2018-08-20T01:50:50.395Z,5.00
2018-08-20T01:53:19.007Z,6.70
2018-08-20T01:55:47.482Z,5.57
2018-08-20T01:58:16.139Z,6.30
2018-08-20T02:00:44.807Z,5.30
2018-08-20T02:03:13.291Z,5.97
2018-08-20T02:05:41.928Z,5.67
2018-08-20T02:08:10.423Z,5.63
2018-08-20T02:10:38.935Z,5.80
2018-08-20T02:13:07.415Z,5.53
2018-08-20T02:15:35.891Z,5.77
2018-08-20T02:18:04.383Z,5.00
2018-08-20T02:20:32.990Z,6.20
2018-08-20T02:23:01.460Z,4.83
2018-08-20T02:25:29.954Z,6.47
2018-08-20T02:27:58.591Z,6.17
2018-08-20T02:30:27.091Z,5.07
2018-08-20T02:32:55.517Z,5.43
2018-08-20T02:35:24.115Z,5.33
2018-08-20T02:37:52.584Z,6.07
2018-08-20T02:40:21.158Z,5.37
2018-08-20T02:42:49.847Z,5.67
2018-08-20T02:45:19.245Z,6.20
2018-08-20T02:47:47.911Z,6.00
2018-08-20T02:50:16.851Z,5.17
2018-08-20T02:52:45.940Z,5.77
2018-08-20T02:55:14.615Z,5.93
2018-08-20T02:57:43.047Z,6.83
2018-08-20T03:00:13.668Z,6.03
2018-08-20T03:02:42.155Z,5.73
2018-08-20T03:05:12.123Z,5.37
2018-08-20T03:07:40.575Z,5.77
2018-08-20T03:10:11.376Z,5.67
2018-08-20T03:12:40.039Z,5.33
2018-08-20T03:15:09.543Z,6.10
2018-08-20T03:17:38.244Z,5.50
2018-08-20T03:20:07.248Z,6.57
2018-08-20T03:22:35.718Z,5.57
2018-08-20T03:25:05.103Z,5.60
2018-08-20T03:27:33.547Z,6.90
2018-08-20T03:30:02.040Z,5.60
2018-08-20T03:32:30.813Z,5.80
2018-08-20T03:34:59.306Z,6.60
2018-08-20T03:37:27.991Z,6.70
2018-08-20T03:39:56.411Z,5.90
2018-08-20T03:42:24.942Z,6.07
2018-08-20T03:44:53.515Z,5.97
2018-08-20T03:47:22.472Z,5.70
2018-08-20T03:49:51.529Z,6.53
2018-08-20T03:52:20.023Z,6.20
2018-08-20T03:54:48.503Z,6.43
2018-08-20T03:57:17.009Z,5.60
2018-08-20T03:59:45.451Z,6.17
2018-08-20T04:02:14.039Z,7.20
2018-08-20T04:04:42.491Z,5.97
2018-08-20T04:07:11.002Z,5.60
2018-08-20T04:09:39.646Z,5.90
2018-08-20T04:12:08.108Z,6.00
2018-08-20T04:14:36.534Z,5.93
2018-08-20T04:17:05.166Z,5.40
2018-08-20T04:19:33.611Z,5.73
2018-08-20T04:22:02.067Z,5.73
2018-08-20T04:24:30.748Z,6.30
2018-08-20T04:26:59.279Z,6.23
2018-08-20T04:29:27.714Z,5.40
2018-08-20T04:31:56.276Z,5.83
2018-08-20T04:34:24.711Z,7.10
2018-08-20T04:36:53.235Z,5.23
2018-08-20T04:39:21.703Z,6.13
2018-08-20T04:41:50.116Z,6.40
2018-08-20T04:44:18.579Z,6.87
2018-08-20T04:46:47.095Z,5.77
2018-08-20T04:49:15.495Z,5.90
2018-08-20T04:51:43.975Z,6.17
2018-08-20T04:54:12.679Z,5.70
2018-08-20T04:56:41.142Z,5.50
2018-08-20T04:59:09.970Z,6.80
2018-08-20T05:01:38.465Z,6.60
2018-08-20T05:04:07.383Z,5.43
2018-08-20T05:06:35.857Z,6.90
2018-08-20T05:09:05.840Z,6.20
2018-08-20T05:11:34.317Z,8.60
2018-08-20T05:14:02.804Z,6.47
2018-08-20T05:16:31.326Z,5.97
2018-08-20T05:18:59.806Z,5.70
2018-08-20T05:21:28.228Z,6.87
2018-08-20T05:23:57.063Z,6.60
2018-08-20T05:26:25.564Z,5.67
2018-08-20T05:28:54.039Z,6.13
2018-08-20T05:31:22.543Z,5.83
2018-08-20T05:33:50.999Z,6.20
2018-08-20T05:36:19.419Z,6.77
2018-08-20T05:38:47.925Z,7.70
2018-08-20T05:41:16.399Z,5.53
2018-08-20T05:43:44.804Z,6.20
2018-08-20T05:46:13.461Z,6.90
2018-08-20T05:48:41.916Z,6.87
2018-08-20T05:51:10.351Z,6.40
2018-08-20T05:53:38.803Z,6.80
2018-08-20T05:56:07.210Z,7.07
2018-08-20T05:58:35.751Z,6.50
2018-08-20T06:01:04.419Z,6.50
2018-08-20T06:03:32.857Z,6.50
2018-08-20T06:06:01.320Z,7.27
2018-08-20T06:08:29.858Z,6.03
2018-08-20T06:10:58.331Z,6.30
2018-08-20T06:13:26.795Z,6.93
2018-08-20T06:15:55.587Z,6.63
2018-08-20T06:18:24.028Z,6.80
2018-08-20T06:20:52.626Z,7.33
2018-08-20T06:23:21.152Z,5.63
2018-08-20T06:25:49.583Z,6.00
2018-08-20T06:28:18.183Z,6.03
2018-08-20T06:30:46.600Z,6.50
2018-08-20T06:33:15.077Z,7.03
2018-08-20T06:35:43.533Z,6.83
2018-08-20T06:38:12.008Z,6.87
2018-08-20T06:40:40.539Z,6.63
2018-08-20T06:43:09.047Z,6.97
2018-08-20T06:45:37.580Z,8.27
2018-08-20T06:48:06.398Z,7.53
2018-08-20T06:50:34.886Z,7.80
2018-08-20T06:53:03.303Z,7.10
2018-08-20T06:55:31.855Z,8.33
2018-08-20T06:58:02.192Z,6.10
2018-08-20T07:00:31.747Z,7.73
2018-08-20T07:03:00.249Z,6.50
2018-08-20T07:05:28.834Z,6.10
2018-08-20T07:07:57.352Z,5.90
2018-08-20T07:10:26.986Z,6.70
2018-08-20T07:12:55.532Z,6.53
2018-08-20T07:15:24.145Z,6.67
2018-08-20T07:17:52.664Z,6.40
2018-08-20T07:20:21.227Z,6.40
2018-08-20T07:22:49.729Z,6.17
2018-08-20T07:25:18.169Z,6.43
2018-08-20T07:27:46.696Z,6.40
2018-08-20T07:30:15.150Z,6.73
2018-08-20T07:32:43.584Z,6.70
2018-08-20T07:35:12.121Z,5.80
2018-08-20T07:37:40.684Z,6.20
2018-08-20T07:40:09.360Z,6.53
2018-08-20T07:42:37.951Z,6.60
2018-08-20T07:45:06.587Z,7.77
2018-08-20T07:47:35.111Z,6.47
2018-08-20T07:50:03.667Z,6.20
2018-08-20T07:52:32.378Z,6.93
2018-08-20T07:55:00.807Z,6.33
2018-08-20T07:57:29.225Z,6.83
2018-08-20T07:59:57.678Z,7.90
2018-08-20T08:02:26.196Z,6.63
2018-08-20T08:04:54.635Z,7.93
2018-08-20T08:07:23.238Z,7.37
2018-08-20T08:09:51.715Z,6.90
2018-08-20T08:12:20.165Z,7.30
2018-08-20T08:14:48.695Z,7.50
2018-08-20T08:17:17.159Z,7.77
2018-08-20T08:19:45.620Z,7.37
2018-08-20T08:22:14.400Z,7.33
2018-08-20T08:24:42.896Z,7.63
2018-08-20T08:27:11.321Z,8.20
2018-08-20T08:29:40.143Z,7.33
2018-08-20T08:32:08.655Z,8.17
2018-08-20T08:34:37.128Z,8.20
2018-08-20T08:37:06.032Z,7.83
2018-08-20T08:39:34.507Z,8.00
2018-08-20T08:42:03.148Z,8.70
2018-08-20T08:44:31.719Z,7.27
2018-08-20T08:47:00.212Z,8.03
2018-08-20T08:49:28.722Z,7.90
2018-08-20T08:51:57.348Z,7.30
2018-08-20T08:54:25.891Z,7.53
2018-08-20T08:56:54.347Z,7.80
2018-08-20T08:59:23.244Z,7.97
2018-08-20T09:01:51.791Z,7.87
2018-08-20T09:04:20.271Z,7.87
2018-08-20T09:06:48.872Z,8.30
2018-08-20T09:09:17.332Z,8.07
2018-08-20T09:11:45.843Z,8.77
2018-08-20T09:14:14.512Z,8.03
2018-08-20T09:16:43.171Z,7.87
2018-08-20T09:19:11.643Z,7.50
2018-08-20T09:21:40.169Z,7.47
2018-08-20T09:24:09.316Z,8.10
2018-08-20T09:26:37.855Z,7.50
2018-08-20T09:29:06.691Z,7.40
2018-08-20T09:31:35.155Z,7.83
2018-08-20T09:34:03.647Z,7.73
2018-08-20T09:36:32.399Z,6.50
2018-08-20T09:39:00.960Z,6.93
2018-08-20T09:41:29.651Z,7.70
2018-08-20T09:43:58.319Z,7.73
2018-08-20T09:46:26.728Z,6.30
2018-08-20T09:48:55.218Z,7.20
2018-08-20T09:51:24.014Z,6.50
2018-08-20T09:53:52.495Z,5.70
2018-08-20T09:56:20.987Z,5.93
2018-08-20T09:58:49.655Z,5.97
2018-08-20T10:01:18.183Z,7.00
2018-08-20T10:03:46.991Z,6.90
2018-08-20T10:06:16.467Z,6.80
2018-08-20T10:08:45.255Z,6.60
2018-08-20T10:11:14.151Z,6.43
2018-08-20T10:13:42.880Z,5.77
2018-08-20T10:16:11.345Z,5.67
2018-08-20T10:18:40.343Z,6.80
2018-08-20T10:21:08.839Z,5.77
2018-08-20T10:23:37.275Z,5.70
2018-08-20T10:26:06.343Z,6.20
2018-08-20T10:28:34.980Z,6.33
2018-08-20T10:31:03.594Z,6.50
2018-08-20T10:33:32.103Z,6.43
2018-08-20T10:36:00.752Z,5.77
2018-08-20T10:38:29.208Z,4.27
2018-08-20T10:40:57.699Z,5.83
2018-08-20T10:43:26.150Z,5.77
2018-08-20T10:45:59.900Z,6.07
2018-08-20T10:48:28.328Z,5.43
2018-08-20T10:50:56.902Z,4.83
2018-08-20T10:53:25.395Z,4.33
2018-08-20T10:55:53.882Z,5.60
2018-08-20T10:58:22.385Z,3.87
2018-08-20T11:00:50.851Z,2.80
2018-08-20T11:03:19.412Z,2.30
2018-08-20T11:05:47.883Z,3.33
2018-08-20T11:08:16.316Z,3.77
2018-08-20T11:10:44.965Z,3.90
2018-08-20T11:13:13.456Z,3.13
2018-08-20T11:15:41.940Z,3.60
2018-08-20T11:18:10.435Z,3.57
2018-08-20T11:20:38.934Z,3.40
2018-08-20T11:23:07.383Z,3.23
2018-08-20T11:25:35.931Z,3.70
2018-08-20T11:28:04.548Z,2.90
2018-08-20T11:30:32.927Z,3.80
2018-08-20T11:33:01.546Z,2.90
2018-08-20T11:35:29.969Z,3.30
2018-08-20T11:37:58.543Z,3.47
2018-08-20T11:40:27.095Z,2.70
2018-08-20T11:42:55.587Z,3.60
2018-08-20T11:45:24.076Z,3.03
2018-08-20T11:47:52.556Z,2.60
2018-08-20T11:50:21.029Z,2.60
2018-08-20T11:52:49.533Z,3.03
2018-08-20T11:55:17.979Z,2.70
2018-08-20T11:57:46.500Z,2.90
2018-08-20T12:00:14.963Z,2.37
2018-08-20T12:02:43.731Z,2.77
2018-08-20T12:05:12.234Z,3.10
2018-08-20T12:07:40.712Z,2.40
2018-08-20T12:10:10.169Z,2.73
2018-08-20T12:12:39.137Z,2.83
2018-08-20T12:15:09.807Z,1.90
2018-08-20T12:17:38.411Z,1.83
2018-08-20T12:20:07.812Z,2.80
2018-08-20T12:22:36.544Z,2.50
2018-08-20T12:25:06.060Z,2.50
2018-08-20T12:27:34.745Z,2.93
2018-08-20T12:30:03.575Z,2.20
2018-08-20T12:32:31.963Z,2.17
2018-08-20T12:35:00.496Z,2.03
2018-08-20T12:37:28.983Z,2.13
2018-08-20T12:39:57.657Z,2.53
2018-08-20T12:42:26.084Z,2.17
2018-08-20T12:44:54.736Z,2.30
2018-08-20T12:47:23.151Z,2.03
2018-08-20T12:49:51.582Z,2.40
2018-08-20T12:52:20.215Z,1.73
2018-08-20T12:54:48.723Z,2.50
2018-08-20T12:57:17.185Z,2.20
2018-08-20T12:59:45.647Z,1.90
2018-08-20T13:02:14.115Z,1.93
2018-08-20T13:04:42.743Z,2.00
2018-08-20T13:07:11.503Z,1.60
2018-08-20T13:09:39.911Z,1.53
2018-08-20T13:12:08.560Z,2.20
2018-08-20T13:14:37.028Z,2.40
2018-08-20T13:17:05.752Z,1.87
2018-08-20T13:19:34.195Z,2.13
2018-08-20T13:22:02.723Z,2.90
2018-08-20T13:24:31.240Z,2.47
2018-08-20T13:26:59.779Z,2.07
2018-08-20T13:29:28.348Z,2.30
2018-08-20T13:31:56.861Z,2.17
2018-08-20T13:34:25.347Z,2.27
2018-08-20T13:36:54.027Z,2.20
2018-08-20T13:39:22.455Z,2.23
2018-08-20T13:41:50.885Z,1.77
2018-08-20T13:44:20.133Z,2.37
2018-08-20T13:46:48.689Z,2.70
2018-08-20T13:49:17.096Z,2.53
2018-08-20T13:51:45.657Z,2.43
2018-08-20T13:54:14.118Z,2.50
2018-08-20T13:56:42.533Z,2.40
2018-08-20T13:59:11.040Z,2.60
2018-08-20T14:01:39.505Z,2.90
2018-08-20T14:04:08.129Z,2.20
2018-08-20T14:06:36.664Z,2.20
2018-08-20T14:09:07.511Z,2.10
2018-08-20T14:11:36.059Z,1.80
2018-08-20T14:14:04.895Z,1.67
2018-08-20T14:16:33.327Z,2.37
2018-08-20T14:19:01.800Z,2.20
2018-08-20T14:21:30.327Z,2.70
2018-08-20T14:23:58.778Z,1.50
2018-08-20T14:26:27.387Z,1.50
2018-08-20T14:28:55.931Z,2.47
2018-08-20T14:31:24.380Z,1.50
2018-08-20T14:33:53.165Z,1.97
2018-08-20T14:36:21.605Z,1.70
2018-08-20T14:38:50.089Z,1.30
2018-08-20T14:41:18.626Z,1.50
2018-08-20T14:43:47.048Z,1.20
2018-08-20T14:46:20.449Z,1.20
2018-08-20T14:48:49.389Z,1.47
2018-08-20T14:51:17.988Z,1.50
2018-08-20T14:53:46.572Z,1.70
2018-08-20T14:56:15.068Z,2.70
2018-08-20T14:58:43.555Z,2.00
2018-08-20T15:01:12.144Z,1.80
2018-08-20T15:03:40.555Z,1.80
2018-08-20T15:06:09.087Z,1.90
2018-08-20T15:08:39.459Z,1.40
2018-08-20T15:11:08.000Z,1.77
2018-08-20T15:13:36.824Z,1.90
2018-08-20T15:16:05.476Z,1.77
2018-08-20T15:18:33.998Z,1.77
2018-08-20T15:21:02.480Z,1.87
2018-08-20T15:23:31.003Z,1.30
2018-08-20T15:25:59.399Z,1.63
2018-08-20T15:28:27.859Z,1.47
2018-08-20T15:30:56.520Z,2.00
2018-08-20T15:33:25.053Z,1.73
2018-08-20T15:35:53.548Z,1.70
2018-08-20T15:38:22.312Z,1.87
2018-08-20T15:40:50.722Z,1.80
2018-08-20T15:43:19.244Z,1.73
2018-08-20T15:45:47.760Z,2.00
2018-08-20T15:48:16.214Z,1.73
2018-08-20T15:50:44.638Z,2.00
2018-08-20T15:53:13.166Z,1.60
2018-08-20T15:55:41.578Z,2.30
2018-08-20T15:58:10.123Z,1.60
2018-08-20T16:00:38.751Z,1.60
2018-08-20T16:03:07.571Z,1.23
2018-08-20T16:05:36.155Z,1.80
2018-08-20T16:08:04.960Z,1.80
2018-08-20T16:10:33.383Z,1.53
2018-08-20T16:13:01.907Z,1.67
2018-08-20T16:15:30.368Z,1.67
2018-08-20T16:17:58.852Z,1.70
2018-08-20T16:20:27.310Z,2.20
2018-08-20T16:22:55.863Z,1.53
2018-08-20T16:25:24.435Z,1.77
2018-08-20T16:27:52.939Z,2.13
2018-08-20T16:30:21.724Z,1.63
2018-08-20T16:32:50.223Z,1.80
2018-08-20T16:35:18.643Z,1.67
2018-08-20T16:37:47.595Z,2.23
2018-08-20T16:40:16.140Z,2.13
2018-08-20T16:42:44.632Z,2.03
2018-08-20T16:45:13.115Z,1.87
2018-08-20T16:47:41.593Z,2.13
2018-08-20T16:50:12.199Z,2.40
2018-08-20T16:52:40.921Z,1.70
2018-08-20T16:55:10.202Z,2.30
2018-08-20T16:57:38.895Z,2.23
2018-08-20T17:00:09.544Z,1.83
2018-08-20T17:02:41.419Z,1.40
2018-08-20T17:05:11.363Z,2.10
2018-08-20T17:07:39.852Z,2.20
2018-08-20T17:10:10.110Z,1.87
2018-08-20T17:12:38.880Z,2.00
2018-08-20T17:15:13.431Z,1.73
2018-08-20T17:17:41.975Z,1.97
2018-08-20T17:20:12.019Z,1.83
2018-08-20T17:22:40.731Z,2.77
2018-08-20T17:25:09.420Z,2.10
2018-08-20T17:27:37.904Z,2.67
2018-08-20T17:30:08.307Z,2.73
2018-08-20T17:32:36.828Z,4.73
2018-08-20T17:35:07.876Z,5.03
2018-08-20T17:37:36.404Z,2.80
2018-08-20T17:40:09.507Z,2.93
2018-08-20T17:42:38.189Z,3.00
2018-08-20T17:45:08.414Z,3.43
2018-08-20T17:47:40.098Z,3.60
2018-08-20T17:50:24.575Z,3.90
2018-08-20T17:52:53.629Z,3.67
2018-08-20T17:55:22.486Z,4.60
2018-08-20T17:57:51.418Z,5.63
2018-08-20T18:00:24.800Z,3.30
2018-08-20T18:02:53.295Z,3.30
2018-08-20T18:05:23.454Z,3.63
2018-08-20T18:07:52.475Z,3.87
2018-08-20T18:10:21.232Z,3.33
2018-08-20T18:12:49.735Z,3.10
2018-08-20T18:15:18.358Z,3.20
2018-08-20T18:17:46.996Z,3.80
2018-08-20T18:20:15.521Z,3.27
2018-08-20T18:22:44.070Z,3.10
2018-08-20T18:25:13.188Z,2.70
2018-08-20T18:27:43.668Z,2.30
2018-08-20T18:30:14.027Z,2.80
2018-08-20T18:32:42.932Z,2.20
2018-08-20T18:35:11.886Z,2.37
2018-08-20T18:37:51.425Z,2.33
2018-08-20T18:40:20.360Z,3.30
2018-08-20T18:42:49.848Z,2.80
2018-08-20T18:45:18.934Z,2.70
2018-08-20T18:47:48.049Z,3.03
2018-08-20T18:50:17.093Z,2.40
2018-08-20T18:52:46.292Z,2.60
2018-08-20T18:55:15.268Z,2.27
2018-08-20T18:57:44.327Z,2.50
2018-08-20T19:00:14.459Z,2.13
2018-08-20T19:02:52.960Z,2.70
2018-08-20T19:05:23.050Z,2.30
2018-08-20T19:07:52.093Z,3.00
2018-08-20T19:10:23.402Z,2.47
2018-08-20T19:12:53.041Z,2.10
2018-08-20T19:15:39.414Z,2.17
2018-08-20T19:18:10.135Z,2.57
2018-08-20T19:20:39.591Z,2.57
2018-08-20T19:23:09.194Z,2.33
2018-08-20T19:25:38.349Z,2.73
2018-08-20T19:28:12.530Z,2.70
2018-08-20T19:30:41.632Z,2.90
2018-08-20T19:33:16.502Z,2.67
2018-08-20T19:35:45.866Z,2.30
2018-08-20T19:38:15.026Z,2.80
2018-08-20T19:40:44.092Z,2.30
2018-08-20T19:43:13.219Z,2.50
2018-08-20T19:45:45.033Z,2.70
2018-08-20T19:48:15.159Z,2.53
2018-08-20T19:50:44.178Z,2.87
2018-08-20T19:53:18.180Z,3.17
2018-08-20T19:55:47.297Z,3.57
2018-08-20T19:58:36.399Z,2.43
2018-08-20T20:01:14.936Z,2.90
2018-08-20T20:03:47.205Z,3.10
2018-08-20T20:06:16.567Z,3.47
2018-08-20T20:08:45.806Z,3.60
2018-08-20T20:11:22.886Z,3.33
2018-08-20T20:16:54.372Z,3.00
2018-08-20T20:19:23.498Z,3.73
2018-08-20T20:21:52.430Z,3.07
2018-08-20T20:24:21.413Z,2.90
2018-08-20T20:26:50.893Z,2.70
2018-08-20T20:29:20.829Z,2.73
2018-08-20T20:31:49.832Z,3.10
2018-08-20T20:34:19.110Z,3.13
2018-08-20T20:36:47.912Z,3.90
2018-08-20T20:39:16.433Z,3.00
2018-08-20T20:41:45.020Z,3.57
2018-08-20T20:44:13.651Z,2.67
2018-08-20T20:46:42.172Z,2.53
2018-08-20T20:49:10.823Z,3.30
2018-08-20T20:51:39.280Z,2.93
2018-08-20T20:54:07.847Z,2.57
2018-08-20T20:56:36.358Z,3.27
2018-08-20T20:59:04.820Z,3.60
2018-08-20T21:01:33.390Z,2.83
2018-08-20T21:04:05.096Z,2.47
2018-08-20T21:06:36.845Z,17.43
2018-08-20T21:09:11.283Z,3.23
2018-08-20T21:11:39.813Z,3.80
2018-08-20T21:14:08.450Z,3.60
2018-08-20T21:16:37.115Z,3.60
2018-08-20T21:19:06.192Z,3.90
2018-08-20T21:21:34.779Z,3.93
2018-08-20T21:24:06.590Z,3.57
2018-08-20T21:26:35.144Z,3.30
2018-08-20T21:29:03.663Z,3.07
2018-08-20T21:31:37.655Z,3.00
2018-08-20T21:34:06.167Z,3.43
2018-08-20T21:36:34.649Z,3.83
2018-08-20T21:39:03.881Z,3.80
2018-08-20T21:41:32.319Z,3.47
2018-08-20T21:44:01.155Z,3.17
2018-08-20T21:46:29.819Z,4.10
2018-08-20T21:48:58.227Z,3.00
2018-08-20T21:51:33.752Z,3.80
2018-08-20T21:54:02.265Z,3.37
2018-08-20T21:56:42.197Z,4.00
2018-08-20T21:59:10.723Z,3.93
2018-08-20T22:01:39.227Z,3.13
2018-08-20T22:04:13.119Z,3.37
2018-08-20T22:06:41.664Z,3.20
2018-08-20T22:09:10.091Z,4.03
2018-08-20T22:11:38.572Z,3.07
2018-08-20T22:14:07.140Z,3.93
2018-08-20T22:16:35.607Z,3.90
2018-08-20T22:19:04.171Z,4.30
2018-08-20T22:21:32.623Z,3.47
2018-08-20T22:24:02.442Z,3.93
2018-08-20T22:26:30.982Z,3.30
2018-08-20T22:28:59.962Z,3.67
2018-08-20T22:31:28.751Z,3.70
2018-08-20T22:34:02.511Z,4.43
2018-08-20T22:36:32.104Z,3.20
2018-08-20T22:39:01.640Z,3.17
2018-08-20T22:41:31.076Z,3.80
2018-08-20T22:44:06.225Z,3.20
2018-08-20T22:46:34.747Z,3.70
2018-08-20T22:49:03.139Z,3.70
2018-08-20T22:51:31.631Z,3.07
2018-08-20T22:54:01.463Z,2.83
2018-08-20T22:56:31.335Z,3.30
2018-08-20T22:59:06.433Z,3.27
2018-08-20T23:01:34.946Z,3.00
2018-08-20T23:04:03.568Z,3.17
2018-08-20T23:06:31.986Z,3.10
2018-08-20T23:09:09.242Z,3.40
2018-08-20T23:11:42.275Z,3.17
2018-08-20T23:14:13.011Z,3.00
2018-08-20T23:16:41.791Z,3.03
2018-08-20T23:19:10.813Z,3.20
2018-08-20T23:21:41.275Z,3.57
2018-08-20T23:24:10.635Z,3.33
2018-08-20T23:26:39.336Z,3.10
2018-08-20T23:29:08.087Z,3.10
2018-08-20T23:31:36.739Z,3.10
2018-08-20T23:34:09.567Z,2.83
2018-08-20T23:36:38.371Z,3.40
2018-08-20T23:39:11.447Z,2.90
2018-08-20T23:41:40.223Z,4.03
2018-08-20T23:44:09.133Z,2.80
2018-08-20T23:46:43.812Z,3.83
2018-08-20T23:49:12.392Z,3.37
2018-08-20T23:51:40.983Z,2.93
2018-08-20T23:54:10.671Z,3.00
2018-08-20T23:56:39.134Z,3.40
2018-08-20T23:59:12.236Z,3.37
